createdAt,value
2023-04-27T00:00:17.950Z,2.31
2023-04-27T00:01:17.946Z,2.17
2023-04-27T00:02:17.998Z,2.09
2023-04-27T00:03:18.212Z,2.03
2023-04-27T00:04:18.109Z,1.82
2023-04-27T00:05:17.959Z,1.91
2023-04-27T00:06:18.015Z,2.19
2023-04-27T00:07:17.924Z,2.17
2023-04-27T00:08:17.922Z,2.06
2023-04-27T00:09:17.921Z,1.88
2023-04-27T00:10:17.912Z,1.93
2023-04-27T00:11:17.909Z,1.89
2023-04-27T00:12:17.913Z,1.77
2023-04-27T00:13:17.926Z,2.11
2023-04-27T00:14:17.894Z,2.18
2023-04-27T00:15:17.898Z,1.76
2023-04-27T00:16:17.910Z,1.88
2023-04-27T00:17:17.888Z,2.14
2023-04-27T00:18:17.901Z,1.82
2023-04-27T00:19:17.936Z,1.91
2023-04-27T00:20:17.891Z,1.79
2023-04-27T00:21:17.888Z,1.71
2023-04-27T00:22:17.910Z,1.90
2023-04-27T00:23:17.905Z,2.00
2023-04-27T00:24:17.912Z,1.89
2023-04-27T00:25:17.902Z,2.05
2023-04-27T00:26:17.882Z,1.53
2023-04-27T00:27:17.883Z,1.95
2023-04-27T00:28:17.901Z,2.13
2023-04-27T00:29:17.898Z,1.92
2023-04-27T00:30:17.869Z,2.10
2023-04-27T00:31:17.900Z,2.12
2023-04-27T00:32:17.859Z,1.34
2023-04-27T00:33:17.872Z,1.74
2023-04-27T00:34:17.876Z,1.87
2023-04-27T00:35:17.879Z,2.11
2023-04-27T00:36:17.897Z,1.89
2023-04-27T00:37:17.902Z,1.93
2023-04-27T00:38:17.910Z,1.77
2023-04-27T00:39:17.927Z,2.28
2023-04-27T00:40:17.975Z,2.39
2023-04-27T00:41:17.957Z,1.90
2023-04-27T00:42:17.973Z,2.03
2023-04-27T00:43:17.983Z,1.99
2023-04-27T00:44:17.995Z,1.95
2023-04-27T00:45:18.033Z,1.84
2023-04-27T00:46:18.018Z,1.83
2023-04-27T00:47:18.033Z,1.62
2023-04-27T00:48:18.038Z,1.97
2023-04-27T00:49:18.047Z,1.62
2023-04-27T00:50:18.047Z,1.67
2023-04-27T00:51:18.054Z,1.70
2023-04-27T00:52:18.062Z,1.95
2023-04-27T00:53:18.084Z,1.83
2023-04-27T00:54:18.096Z,1.80
2023-04-27T00:55:18.103Z,2.11
2023-04-27T00:56:18.120Z,1.98
2023-04-27T00:57:18.117Z,1.86
2023-04-27T00:58:18.136Z,1.52
2023-04-27T00:59:18.166Z,1.89
2023-04-27T01:00:18.175Z,2.01
2023-04-27T01:01:18.260Z,1.97
2023-04-27T01:02:18.265Z,1.61
2023-04-27T01:03:18.323Z,1.58
2023-04-27T01:04:18.569Z,1.89
2023-04-27T01:05:18.251Z,1.79
2023-04-27T01:06:18.258Z,1.93
2023-04-27T01:07:18.269Z,1.83
2023-04-27T01:08:18.286Z,1.99
2023-04-27T01:09:18.304Z,1.58
2023-04-27T01:10:18.350Z,1.90
2023-04-27T01:11:18.339Z,1.60
2023-04-27T01:12:18.359Z,1.70
2023-04-27T01:13:18.355Z,1.76
2023-04-27T01:14:18.362Z,2.17
2023-04-27T01:15:18.375Z,1.70
2023-04-27T01:16:18.460Z,1.68
2023-04-27T01:17:18.424Z,1.79
2023-04-27T01:18:18.442Z,1.90
2023-04-27T01:19:18.435Z,2.13
2023-04-27T01:20:18.667Z,1.69
2023-04-27T01:21:18.471Z,1.81
2023-04-27T01:22:18.495Z,1.61
2023-04-27T01:23:21.159Z,2.16
2023-04-27T01:24:18.487Z,2.00
2023-04-27T01:25:18.489Z,1.88
2023-04-27T01:26:18.492Z,1.98
2023-04-27T01:27:18.485Z,1.77
2023-04-27T01:28:18.485Z,1.89
2023-04-27T01:29:18.476Z,2.21
2023-04-27T01:30:18.475Z,1.43
2023-04-27T01:31:18.517Z,1.60
2023-04-27T01:32:18.464Z,2.30
2023-04-27T01:33:18.500Z,1.95
2023-04-27T01:34:18.462Z,1.83
2023-04-27T01:35:18.468Z,1.63
2023-04-27T01:36:18.458Z,2.21
2023-04-27T01:37:18.454Z,1.75
2023-04-27T01:38:18.453Z,1.76
2023-04-27T01:39:25.163Z,1.75
2023-04-27T01:40:18.446Z,2.15
2023-04-27T01:41:18.442Z,2.08
2023-04-27T01:42:18.457Z,1.87
2023-04-27T01:43:18.422Z,1.95
2023-04-27T01:44:18.412Z,1.92
2023-04-27T01:45:18.426Z,1.87
2023-04-27T01:46:18.471Z,1.87
2023-04-27T01:47:25.206Z,2.05
2023-04-27T01:48:25.339Z,2.11
2023-04-27T01:49:18.392Z,2.36
2023-04-27T01:50:18.386Z,1.87
2023-04-27T01:51:18.393Z,2.20
2023-04-27T01:52:18.407Z,1.72
2023-04-27T01:53:18.681Z,1.93
2023-04-27T01:54:18.357Z,1.87
2023-04-27T01:55:18.365Z,2.07
2023-04-27T01:56:18.364Z,1.79
2023-04-27T01:57:18.374Z,1.82
2023-04-27T01:58:18.348Z,1.90
2023-04-27T01:59:18.340Z,1.70
2023-04-27T02:00:18.337Z,1.85
2023-04-27T02:01:18.389Z,1.63
2023-04-27T02:02:18.370Z,1.63
2023-04-27T02:04:17.542Z,2.16
2023-04-27T02:05:18.327Z,1.80
2023-04-27T02:06:18.314Z,2.12
2023-04-27T02:07:18.348Z,2.15
2023-04-27T02:08:18.291Z,1.85
2023-04-27T02:09:18.270Z,1.85
2023-04-27T02:10:18.281Z,1.69
2023-04-27T02:11:18.254Z,1.86
2023-04-27T02:12:18.270Z,2.06
2023-04-27T02:13:18.242Z,1.73
2023-04-27T02:14:18.241Z,2.14
2023-04-27T02:15:18.240Z,1.80
2023-04-27T02:16:18.378Z,1.98
2023-04-27T02:17:18.334Z,2.00
2023-04-27T02:18:18.248Z,1.77
2023-04-27T02:19:18.219Z,2.04
2023-04-27T02:20:18.271Z,1.90
2023-04-27T02:21:18.245Z,1.71
2023-04-27T02:22:18.259Z,1.69
2023-04-27T02:23:18.281Z,1.93
2023-04-27T02:24:18.286Z,2.18
2023-04-27T02:25:18.294Z,1.79
2023-04-27T02:26:18.306Z,2.21
2023-04-27T02:27:18.327Z,2.06
2023-04-27T02:28:18.353Z,1.97
2023-04-27T02:29:18.356Z,1.89
2023-04-27T02:30:18.372Z,2.09
2023-04-27T02:31:18.422Z,1.94
2023-04-27T02:32:19.193Z,1.79
2023-04-27T02:33:18.409Z,1.85
2023-04-27T02:34:18.429Z,2.07
2023-04-27T02:35:18.695Z,1.80
2023-04-27T02:36:18.603Z,1.93
2023-04-27T02:37:18.476Z,2.14
2023-04-27T02:38:18.499Z,1.95
2023-04-27T02:39:18.500Z,1.92
2023-04-27T02:40:18.516Z,1.86
2023-04-27T02:41:18.537Z,1.98
2023-04-27T02:42:18.555Z,1.75
2023-04-27T02:43:18.568Z,1.74
2023-04-27T02:44:18.589Z,2.14
2023-04-27T02:45:18.603Z,1.84
2023-04-27T02:46:19.216Z,1.82
2023-04-27T02:47:18.610Z,1.84
2023-04-27T02:48:18.633Z,1.87
2023-04-27T02:49:25.188Z,1.91
2023-04-27T02:50:18.697Z,2.07
2023-04-27T02:51:18.619Z,2.03
2023-04-27T02:52:18.633Z,1.94
2023-04-27T02:53:18.620Z,1.85
2023-04-27T02:54:18.594Z,1.80
2023-04-27T02:55:18.587Z,1.94
2023-04-27T02:56:18.582Z,2.01
2023-04-27T02:57:18.568Z,1.93
2023-04-27T02:58:18.558Z,1.79
2023-04-27T02:59:18.550Z,2.06
2023-04-27T03:00:18.544Z,1.99
2023-04-27T03:01:18.606Z,2.00
2023-04-27T03:02:18.600Z,1.83
2023-04-27T03:03:18.694Z,1.84
2023-04-27T03:04:18.710Z,1.99
2023-04-27T03:05:18.501Z,1.71
2023-04-27T03:06:18.490Z,1.54
2023-04-27T03:07:18.486Z,1.49
2023-04-27T03:08:18.523Z,1.84
2023-04-27T03:09:18.481Z,2.23
2023-04-27T03:10:19.191Z,2.01
2023-04-27T03:11:18.450Z,1.95
2023-04-27T03:12:18.597Z,1.45
2023-04-27T03:13:18.441Z,1.91
2023-04-27T03:14:18.466Z,1.79
2023-04-27T03:15:18.413Z,2.28
2023-04-27T03:16:18.428Z,2.01
2023-04-27T03:17:18.400Z,1.80
2023-04-27T03:18:18.402Z,1.67
2023-04-27T03:19:18.406Z,2.28
2023-04-27T03:20:18.395Z,1.77
2023-04-27T03:21:18.382Z,1.85
2023-04-27T03:22:18.374Z,1.85
2023-04-27T03:23:18.378Z,1.62
2023-04-27T03:24:18.402Z,1.53
2023-04-27T03:25:18.362Z,1.69
2023-04-27T03:26:18.354Z,1.73
2023-04-27T03:27:18.354Z,2.20
2023-04-27T03:28:18.343Z,1.66
2023-04-27T03:29:18.342Z,2.02
2023-04-27T03:30:18.326Z,2.19
2023-04-27T03:31:18.327Z,1.59
2023-04-27T03:32:18.323Z,2.27
2023-04-27T03:33:18.317Z,2.14
2023-04-27T03:34:18.313Z,1.75
2023-04-27T03:35:18.300Z,2.25
2023-04-27T03:36:18.288Z,1.68
2023-04-27T03:37:18.283Z,1.64
2023-04-27T03:38:18.279Z,1.95
2023-04-27T03:39:18.267Z,2.18
2023-04-27T03:40:18.286Z,2.13
2023-04-27T03:41:18.255Z,2.05
2023-04-27T03:42:18.253Z,1.71
2023-04-27T03:43:18.274Z,1.78
2023-04-27T03:44:18.276Z,2.25
2023-04-27T03:45:18.285Z,1.70
2023-04-27T03:46:18.341Z,2.26
2023-04-27T03:47:18.314Z,1.99
2023-04-27T03:48:18.337Z,1.79
2023-04-27T03:49:18.344Z,2.14
2023-04-27T03:50:18.358Z,1.93
2023-04-27T03:51:18.402Z,1.71
2023-04-27T03:52:18.367Z,1.77
2023-04-27T03:53:18.389Z,1.89
2023-04-27T03:54:18.394Z,1.75
2023-04-27T03:55:18.412Z,2.06
2023-04-27T03:56:18.440Z,1.66
2023-04-27T03:57:18.428Z,1.90
2023-04-27T03:58:18.434Z,2.00
2023-04-27T03:59:18.461Z,2.14
2023-04-27T04:00:18.483Z,1.94
2023-04-27T04:01:18.453Z,1.78
2023-04-27T04:02:18.562Z,1.89
2023-04-27T04:03:18.641Z,2.23
2023-04-27T04:04:18.627Z,1.63
2023-04-27T04:05:18.595Z,1.78
2023-04-27T04:06:18.524Z,1.80
2023-04-27T04:07:18.520Z,1.89
2023-04-27T04:08:18.526Z,1.85
2023-04-27T04:09:18.538Z,2.01
2023-04-27T04:10:18.561Z,1.86
2023-04-27T04:11:18.562Z,1.81
2023-04-27T04:12:19.264Z,1.58
2023-04-27T04:13:19.226Z,2.36
2023-04-27T04:14:18.601Z,1.90
2023-04-27T04:15:18.620Z,1.91
2023-04-27T04:16:18.665Z,2.12
2023-04-27T04:17:25.226Z,2.00
2023-04-27T04:18:18.740Z,1.97
2023-04-27T04:19:20.698Z,1.57
2023-04-27T04:20:18.614Z,2.11
2023-04-27T04:21:18.604Z,2.13
2023-04-27T04:22:18.601Z,1.86
2023-04-27T04:23:18.596Z,1.82
2023-04-27T04:24:18.591Z,2.00
2023-04-27T04:25:18.599Z,1.96
2023-04-27T04:26:18.598Z,1.80
2023-04-27T04:27:18.597Z,2.11
2023-04-27T04:28:18.601Z,2.01
2023-04-27T04:29:18.564Z,1.96
2023-04-27T04:30:18.574Z,1.94
2023-04-27T04:31:18.582Z,1.81
2023-04-27T04:32:18.544Z,1.45
2023-04-27T04:33:18.545Z,1.81
2023-04-27T04:34:18.534Z,2.09
2023-04-27T04:35:18.527Z,1.85
2023-04-27T04:36:18.548Z,2.00
2023-04-27T04:37:18.516Z,2.14
2023-04-27T04:38:33.240Z,1.99
2023-04-27T04:39:36.532Z,1.44
2023-04-27T04:40:37.624Z,2.30
2023-04-27T04:41:37.624Z,2.03
2023-04-27T04:42:37.645Z,2.09
2023-04-27T04:43:37.634Z,2.07
2023-04-27T04:44:38.052Z,1.84
2023-04-27T04:45:37.611Z,2.01
2023-04-27T04:46:37.798Z,1.76
2023-04-27T04:47:37.627Z,1.88
2023-04-27T04:48:37.613Z,1.94
2023-04-27T04:49:37.620Z,1.61
2023-04-27T04:50:37.605Z,2.01
2023-04-27T04:51:37.623Z,1.93
2023-04-27T04:53:55.513Z,1.83
2023-04-27T04:54:56.615Z,1.76
2023-04-27T04:55:56.607Z,2.00
2023-04-27T04:56:56.607Z,2.13
2023-04-27T04:57:56.617Z,1.58
2023-04-27T04:58:56.642Z,1.61
2023-04-27T04:59:56.626Z,1.79
2023-04-27T05:00:56.631Z,1.91
2023-04-27T05:01:56.732Z,1.75
2023-04-27T05:02:56.827Z,1.49
2023-04-27T05:03:56.767Z,2.23
2023-04-27T05:04:56.821Z,1.80
2023-04-27T05:05:56.621Z,2.15
2023-04-27T05:06:56.616Z,2.06
2023-04-27T05:07:56.617Z,2.21
2023-04-27T05:08:56.667Z,2.02
2023-04-27T05:09:56.617Z,1.97
2023-04-27T05:10:56.619Z,2.09
2023-04-27T05:11:56.629Z,2.05
2023-04-27T05:12:56.641Z,1.95
2023-04-27T05:13:56.668Z,1.59
2023-04-27T05:14:56.742Z,2.02
2023-04-27T05:15:56.709Z,2.27
2023-04-27T05:16:56.635Z,1.70
2023-04-27T05:17:56.703Z,1.76
2023-04-27T05:18:56.650Z,1.83
2023-04-27T05:19:56.679Z,1.71
2023-04-27T05:20:57.183Z,2.06
2023-04-27T05:21:57.171Z,1.99
2023-04-27T05:22:56.667Z,1.97
2023-04-27T05:23:56.817Z,1.99
2023-04-27T05:24:57.575Z,1.99
2023-04-27T05:25:56.664Z,2.33
2023-04-27T05:26:57.669Z,2.10
2023-04-27T05:27:56.676Z,1.69
2023-04-27T05:28:56.665Z,2.13
2023-04-27T05:29:56.667Z,1.91
2023-04-27T05:30:56.697Z,1.97
2023-04-27T05:31:56.782Z,1.86
2023-04-27T05:32:56.687Z,2.44
2023-04-27T05:33:56.670Z,1.78
2023-04-27T05:34:56.663Z,1.91
2023-04-27T05:35:56.702Z,1.89
2023-04-27T05:36:56.702Z,2.21
2023-04-27T05:37:56.756Z,1.91
2023-04-27T05:38:57.204Z,2.21
2023-04-27T05:39:57.192Z,2.29
2023-04-27T05:40:57.190Z,2.41
2023-04-27T05:41:57.188Z,2.53
2023-04-27T05:42:57.684Z,2.25
2023-04-27T05:43:57.196Z,2.36
2023-04-27T05:44:57.181Z,2.21
2023-04-27T05:45:58.126Z,2.27
2023-04-27T05:46:57.268Z,2.37
2023-04-27T05:47:57.387Z,2.27
2023-04-27T05:48:57.338Z,2.54
2023-04-27T05:49:57.698Z,2.19
2023-04-27T05:50:57.437Z,2.17
2023-04-27T05:51:57.490Z,2.28
2023-04-27T05:52:57.695Z,2.49
2023-04-27T05:53:58.177Z,2.57
2023-04-27T05:54:57.627Z,2.82
2023-04-27T05:55:57.695Z,2.08
2023-04-27T05:56:58.734Z,2.71
2023-04-27T05:58:07.666Z,2.31
2023-04-27T05:58:59.088Z,2.44
2023-04-27T05:59:58.028Z,2.40
2023-04-27T06:00:58.378Z,2.16
2023-04-27T06:02:13.752Z,2.53
2023-04-27T06:03:01.580Z,2.41
2023-04-27T06:03:58.050Z,2.01
2023-04-27T06:04:58.082Z,1.88
2023-04-27T06:05:59.158Z,2.32
2023-04-27T06:06:58.070Z,2.68
2023-04-27T06:07:58.212Z,2.45
2023-04-27T06:08:58.083Z,1.93
2023-04-27T06:09:58.175Z,2.33
2023-04-27T06:10:58.206Z,2.47
2023-04-27T06:11:58.127Z,2.32
2023-04-27T06:12:58.197Z,2.21
2023-04-27T06:13:58.075Z,2.08
2023-04-27T06:14:58.079Z,2.77
2023-04-27T06:15:58.245Z,2.55
2023-04-27T06:16:58.102Z,2.40
2023-04-27T06:17:58.159Z,2.60
2023-04-27T06:18:58.138Z,2.05
2023-04-27T06:19:58.080Z,2.41
2023-04-27T06:20:58.197Z,2.06
2023-04-27T06:21:58.110Z,2.22
2023-04-27T06:22:58.125Z,2.47
2023-04-27T06:23:58.121Z,2.09
2023-04-27T06:24:58.126Z,2.57
2023-04-27T06:25:58.127Z,2.16
2023-04-27T06:26:58.126Z,2.47
2023-04-27T06:27:58.135Z,2.46
2023-04-27T06:28:58.148Z,1.99
2023-04-27T06:29:58.137Z,1.99
2023-04-27T06:30:58.156Z,2.29
2023-04-27T06:31:58.190Z,3.19
2023-04-27T06:32:58.225Z,2.24
2023-04-27T06:33:58.210Z,2.52
2023-04-27T06:34:58.192Z,2.12
2023-04-27T06:35:58.708Z,2.51
2023-04-27T06:36:58.193Z,2.21
2023-04-27T06:37:58.193Z,2.01
2023-04-27T06:38:58.201Z,1.82
2023-04-27T06:39:58.193Z,2.47
2023-04-27T06:40:58.700Z,2.81
2023-04-27T06:41:58.202Z,2.51
2023-04-27T06:42:58.224Z,5.02
2023-04-27T06:43:59.164Z,5.76
2023-04-27T06:44:58.704Z,6.05
2023-04-27T06:45:58.749Z,5.70
2023-04-27T06:46:58.378Z,5.14
2023-04-27T06:47:58.474Z,5.76
2023-04-27T06:48:58.547Z,6.26
2023-04-27T06:49:58.758Z,6.69
2023-04-27T06:50:58.627Z,5.71
2023-04-27T06:51:58.689Z,6.36
2023-04-27T06:52:58.714Z,6.26
2023-04-27T06:53:58.752Z,6.25
2023-04-27T06:54:59.784Z,7.73
2023-04-27T06:55:59.221Z,8.58
2023-04-27T06:56:58.942Z,7.63
2023-04-27T06:57:59.207Z,8.67
2023-04-27T06:59:00.087Z,7.96
2023-04-27T06:59:59.198Z,9.33
2023-04-27T07:00:59.486Z,10.46
2023-04-27T07:02:02.646Z,10.34
2023-04-27T07:02:59.734Z,11.28
2023-04-27T07:03:59.516Z,9.21
2023-04-27T07:04:59.561Z,10.27
2023-04-27T07:05:59.502Z,9.61
2023-04-27T07:06:59.505Z,10.19
2023-04-27T07:08:01.564Z,9.57
2023-04-27T07:08:59.583Z,9.34
2023-04-27T07:09:59.815Z,8.63
2023-04-27T07:10:59.680Z,8.71
2023-04-27T07:12:00.700Z,8.07
2023-04-27T07:12:59.813Z,7.50
2023-04-27T07:14:00.702Z,8.10
2023-04-27T07:14:59.897Z,7.83
2023-04-27T07:15:59.923Z,6.72
2023-04-27T07:17:00.038Z,5.93
2023-04-27T07:18:00.051Z,6.52
2023-04-27T07:19:00.097Z,6.05
2023-04-27T07:20:00.140Z,5.92
2023-04-27T07:21:00.220Z,6.25
2023-04-27T07:22:00.157Z,6.15
2023-04-27T07:23:00.153Z,6.45
2023-04-27T07:24:00.201Z,5.38
2023-04-27T07:25:00.215Z,5.82
2023-04-27T07:26:00.258Z,6.04
2023-04-27T07:27:03.534Z,5.51
2023-04-27T07:28:00.755Z,5.54
2023-04-27T07:29:04.176Z,5.60
2023-04-27T07:30:00.270Z,5.21
2023-04-27T07:31:01.113Z,5.36
2023-04-27T07:32:00.278Z,4.75
2023-04-27T07:33:00.349Z,5.21
2023-04-27T07:34:00.605Z,5.20
2023-04-27T07:35:00.191Z,4.76
2023-04-27T07:36:00.264Z,4.95
2023-04-27T07:37:00.181Z,4.87
2023-04-27T07:38:00.160Z,5.82
2023-04-27T07:39:00.146Z,5.51
2023-04-27T07:40:00.166Z,4.96
2023-04-27T07:41:00.233Z,4.67
2023-04-27T07:42:00.118Z,5.00
2023-04-27T07:43:00.068Z,5.30
2023-04-27T07:44:00.058Z,4.76
2023-04-27T07:45:00.511Z,4.85
2023-04-27T07:46:00.328Z,5.27
2023-04-27T07:47:00.032Z,4.69
2023-04-27T07:48:00.260Z,4.97
2023-04-27T07:49:00.334Z,4.78
2023-04-27T07:49:59.994Z,4.75
2023-04-27T07:51:00.237Z,5.18
2023-04-27T07:52:00.026Z,4.75
2023-04-27T07:53:00.219Z,4.91
2023-04-27T07:54:03.380Z,4.95
2023-04-27T07:55:00.501Z,4.02
2023-04-27T07:55:59.975Z,4.73
2023-04-27T07:56:59.963Z,4.68
2023-04-27T07:58:00.328Z,5.17
2023-04-27T07:58:59.898Z,5.11
2023-04-27T07:59:59.877Z,4.58
2023-04-27T08:01:01.036Z,4.41
2023-04-27T08:02:17.804Z,4.47
2023-04-27T08:03:00.123Z,4.51
2023-04-27T08:03:59.944Z,4.52
2023-04-27T08:05:00.062Z,4.46
2023-04-27T08:06:01.145Z,4.39
2023-04-27T08:07:00.116Z,4.82
2023-04-27T08:07:59.757Z,4.47
2023-04-27T08:08:59.729Z,4.33
2023-04-27T08:09:59.634Z,4.26
2023-04-27T08:10:59.733Z,4.35
2023-04-27T08:11:59.540Z,4.39
2023-04-27T08:12:59.555Z,4.00
2023-04-27T08:14:00.228Z,4.12
2023-04-27T08:14:59.448Z,4.40
2023-04-27T08:15:59.729Z,3.82
2023-04-27T08:16:59.462Z,4.21
2023-04-27T08:17:59.431Z,4.27
2023-04-27T08:19:00.714Z,4.58
2023-04-27T08:19:59.407Z,4.24
2023-04-27T08:20:59.430Z,4.38
2023-04-27T08:21:59.455Z,4.03
2023-04-27T08:22:59.471Z,3.64
2023-04-27T08:23:59.731Z,4.05
2023-04-27T08:24:59.518Z,3.91
2023-04-27T08:25:59.592Z,3.88
2023-04-27T08:26:59.552Z,4.24
2023-04-27T08:27:59.568Z,3.98
2023-04-27T08:28:59.581Z,3.65
2023-04-27T08:29:59.598Z,4.67
2023-04-27T08:30:59.672Z,3.66
2023-04-27T08:31:59.831Z,3.54
2023-04-27T08:32:59.683Z,3.47
2023-04-27T08:34:00.026Z,3.73
2023-04-27T08:35:00.059Z,3.94
2023-04-27T08:36:00.020Z,3.79
2023-04-27T08:37:58.740Z,3.46
2023-04-27T08:38:59.667Z,3.50
2023-04-27T08:39:59.660Z,4.00
2023-04-27T08:41:04.752Z,3.63
2023-04-27T08:41:59.653Z,3.56
2023-04-27T08:42:59.744Z,3.65
2023-04-27T08:43:59.734Z,4.76
2023-04-27T08:44:59.766Z,5.40
2023-04-27T08:45:59.501Z,4.74
2023-04-27T08:46:59.466Z,5.23
2023-04-27T08:47:59.832Z,4.94
2023-04-27T08:48:59.458Z,4.36
2023-04-27T08:50:00.253Z,5.87
2023-04-27T08:50:59.783Z,5.07
2023-04-27T08:51:59.309Z,4.90
2023-04-27T08:53:00.265Z,5.01
2023-04-27T08:53:59.249Z,4.58
2023-04-27T08:54:59.214Z,4.75
2023-04-27T08:55:59.264Z,5.21
2023-04-27T08:56:59.754Z,4.75
2023-04-27T08:58:01.781Z,4.92
2023-04-27T08:58:59.746Z,4.89
2023-04-27T08:59:59.159Z,5.04
2023-04-27T09:00:59.278Z,5.26
2023-04-27T09:01:59.166Z,5.24
2023-04-27T09:02:59.240Z,4.92
2023-04-27T09:03:59.408Z,5.07
2023-04-27T09:04:59.211Z,5.24
2023-04-27T09:06:05.215Z,5.24
2023-04-27T09:06:58.978Z,4.75
2023-04-27T09:07:58.964Z,4.81
2023-04-27T09:08:58.970Z,4.48
2023-04-27T09:09:59.274Z,5.27
2023-04-27T09:10:59.301Z,5.17
2023-04-27T09:11:59.282Z,5.41
2023-04-27T09:12:58.830Z,4.87
2023-04-27T09:13:58.877Z,4.66
2023-04-27T09:14:59.958Z,4.74
2023-04-27T09:15:58.756Z,4.59
2023-04-27T09:16:58.765Z,4.78
2023-04-27T09:17:58.817Z,4.24
2023-04-27T09:18:58.662Z,4.44
2023-04-27T09:19:58.651Z,4.03
2023-04-27T09:20:58.791Z,4.44
2023-04-27T09:21:58.595Z,4.94
2023-04-27T09:22:58.857Z,4.95
2023-04-27T09:23:58.560Z,4.36
2023-04-27T09:24:58.540Z,4.78
2023-04-27T09:25:58.793Z,4.03
2023-04-27T09:27:00.617Z,4.26
2023-04-27T09:27:58.761Z,4.56
2023-04-27T09:28:58.449Z,4.08
2023-04-27T09:29:58.456Z,4.48
2023-04-27T09:30:58.777Z,4.25
2023-04-27T09:31:58.476Z,3.79
2023-04-27T09:32:58.427Z,3.90
2023-04-27T09:33:58.338Z,4.32
2023-04-27T09:34:58.312Z,3.86
2023-04-27T09:35:58.774Z,5.06
2023-04-27T09:36:58.279Z,4.23
2023-04-27T09:37:58.271Z,4.00
2023-04-27T09:38:58.255Z,4.02
2023-04-27T09:39:58.260Z,4.44
2023-04-27T09:40:58.768Z,4.40
2023-04-27T09:41:58.175Z,4.60
2023-04-27T09:42:58.266Z,3.98
2023-04-27T09:43:59.256Z,4.39
2023-04-27T09:44:58.095Z,4.28
2023-04-27T09:45:58.448Z,3.59
2023-04-27T09:46:58.068Z,4.75
2023-04-27T09:47:58.360Z,3.78
2023-04-27T09:48:58.006Z,4.25
2023-04-27T09:49:57.984Z,3.84
2023-04-27T09:50:58.295Z,4.45
2023-04-27T09:51:57.983Z,4.03
2023-04-27T09:52:57.947Z,4.99
2023-04-27T09:53:57.920Z,4.19
2023-04-27T09:54:58.783Z,3.74
2023-04-27T09:55:58.302Z,3.56
2023-04-27T09:56:57.834Z,3.97
2023-04-27T09:57:57.800Z,4.24
2023-04-27T09:58:58.810Z,4.52
2023-04-27T09:59:57.815Z,4.28
2023-04-27T10:00:57.904Z,3.82
2023-04-27T10:01:58.033Z,3.98
2023-04-27T10:02:57.866Z,4.49
2023-04-27T10:03:58.472Z,3.61
2023-04-27T10:04:57.865Z,4.45
2023-04-27T10:05:57.830Z,4.55
2023-04-27T10:06:58.099Z,3.80
2023-04-27T10:07:57.799Z,4.15
2023-04-27T10:08:58.349Z,3.93
2023-04-27T10:09:58.283Z,3.80
2023-04-27T10:10:57.800Z,3.64
2023-04-27T10:11:57.811Z,3.54
2023-04-27T10:12:57.809Z,4.53
2023-04-27T10:13:58.286Z,3.97
2023-04-27T10:14:58.132Z,3.28
2023-04-27T10:15:58.329Z,4.16
2023-04-27T10:16:57.842Z,3.82
2023-04-27T10:17:57.946Z,3.56
2023-04-27T10:18:58.287Z,3.21
2023-04-27T10:19:58.406Z,3.89
2023-04-27T10:20:57.853Z,3.60
2023-04-27T10:21:58.363Z,3.69
2023-04-27T10:22:57.859Z,3.95
2023-04-27T10:23:58.318Z,3.82
2023-04-27T10:24:57.870Z,4.07
2023-04-27T10:25:57.870Z,5.23
2023-04-27T10:26:57.858Z,5.74
2023-04-27T10:27:57.888Z,4.42
2023-04-27T10:28:58.291Z,4.44
2023-04-27T10:29:57.852Z,4.52
2023-04-27T10:30:57.901Z,4.85
2023-04-27T10:31:57.843Z,4.90
2023-04-27T10:32:58.343Z,4.00
2023-04-27T10:33:58.341Z,3.73
2023-04-27T10:34:57.829Z,4.23
2023-04-27T10:35:57.816Z,4.25
2023-04-27T10:36:58.131Z,4.31
2023-04-27T10:37:58.141Z,4.24
2023-04-27T10:38:58.172Z,4.46
2023-04-27T10:39:58.128Z,4.17
2023-04-27T10:40:58.143Z,4.11
2023-04-27T10:41:58.139Z,4.67
2023-04-27T10:42:58.166Z,4.19
2023-04-27T10:43:58.186Z,4.44
2023-04-27T10:44:58.147Z,3.97
2023-04-27T10:45:57.735Z,3.95
2023-04-27T10:46:58.139Z,3.48
2023-04-27T10:47:57.723Z,4.11
2023-04-27T10:48:57.668Z,3.37
2023-04-27T10:49:58.171Z,4.31
2023-04-27T10:50:57.649Z,3.73
2023-04-27T10:51:57.632Z,3.49
2023-04-27T10:52:59.319Z,3.89
2023-04-27T10:53:57.625Z,3.56
2023-04-27T10:54:57.591Z,3.37
2023-04-27T10:55:57.565Z,4.08
2023-04-27T10:56:57.537Z,3.58
2023-04-27T10:57:57.513Z,3.24
2023-04-27T10:58:57.501Z,3.62
2023-04-27T10:59:58.148Z,3.42
2023-04-27T11:00:57.428Z,3.18
2023-04-27T11:01:57.455Z,3.44
2023-04-27T11:02:57.476Z,3.48
2023-04-27T11:03:57.362Z,3.72
2023-04-27T11:04:58.172Z,3.71
2023-04-27T11:05:58.104Z,3.92
2023-04-27T11:06:57.327Z,3.77
2023-04-27T11:07:57.300Z,3.50
2023-04-27T11:08:57.221Z,3.64
2023-04-27T11:09:57.203Z,3.42
2023-04-27T11:10:57.305Z,4.08
2023-04-27T11:11:57.328Z,3.38
2023-04-27T11:12:57.236Z,3.80
2023-04-27T11:13:57.193Z,5.26
2023-04-27T11:14:57.302Z,4.80
2023-04-27T11:15:57.206Z,4.57
2023-04-27T11:16:57.314Z,4.56
2023-04-27T11:17:57.044Z,4.18
2023-04-27T11:18:59.629Z,4.45
2023-04-27T11:19:56.961Z,4.28
2023-04-27T11:20:57.308Z,3.79
2023-04-27T11:21:56.970Z,3.88
2023-04-27T11:22:56.855Z,3.41
2023-04-27T11:23:56.839Z,4.20
2023-04-27T11:24:56.814Z,3.55
2023-04-27T11:25:56.768Z,4.02
2023-04-27T11:26:56.758Z,3.91
2023-04-27T11:27:56.703Z,4.04
2023-04-27T11:28:56.680Z,4.10
2023-04-27T11:29:56.662Z,4.02
2023-04-27T11:30:56.622Z,3.51
2023-04-27T11:31:56.892Z,3.46
2023-04-27T11:32:56.617Z,3.30
2023-04-27T11:33:56.547Z,3.37
2023-04-27T11:34:58.387Z,3.55
2023-04-27T11:35:56.653Z,3.36
2023-04-27T11:37:03.741Z,3.48
2023-04-27T11:37:56.426Z,3.11
2023-04-27T11:38:56.395Z,3.32
2023-04-27T11:39:56.819Z,3.22
2023-04-27T11:40:56.297Z,3.93
2023-04-27T11:41:56.270Z,4.10
2023-04-27T11:42:56.250Z,3.65
2023-04-27T11:43:56.213Z,4.11
2023-04-27T11:44:56.184Z,3.31
2023-04-27T11:45:56.171Z,3.02
2023-04-27T11:46:56.186Z,3.47
2023-04-27T11:47:56.858Z,3.14
2023-04-27T11:48:56.169Z,3.69
2023-04-27T11:49:56.183Z,2.96
2023-04-27T11:50:56.167Z,3.36
2023-04-27T11:51:56.169Z,3.47
2023-04-27T11:52:56.173Z,3.54
2023-04-27T11:53:56.598Z,3.53
2023-04-27T11:54:56.166Z,3.25
2023-04-27T11:55:56.164Z,3.20
2023-04-27T11:56:56.333Z,3.52
2023-04-27T11:57:56.172Z,3.48
2023-04-27T11:58:56.165Z,3.04
2023-04-27T11:59:56.212Z,3.43
2023-04-27T12:00:55.754Z,4.05
2023-04-27T12:01:55.734Z,3.01
2023-04-27T12:02:56.266Z,2.92
2023-04-27T12:03:55.753Z,3.50
2023-04-27T12:04:56.308Z,2.88
2023-04-27T12:05:56.614Z,2.98
2023-04-27T12:06:55.761Z,3.08
2023-04-27T12:07:55.778Z,3.75
2023-04-27T12:08:55.789Z,3.23
2023-04-27T12:09:55.828Z,3.34
2023-04-27T12:10:55.832Z,3.13
2023-04-27T12:11:55.777Z,3.18
2023-04-27T12:12:55.781Z,3.21
2023-04-27T12:13:55.783Z,3.08
2023-04-27T12:14:55.805Z,3.04
2023-04-27T12:15:55.818Z,2.99
2023-04-27T12:16:56.373Z,2.74
2023-04-27T12:17:55.912Z,3.03
2023-04-27T12:18:55.903Z,2.17
2023-04-27T12:19:55.940Z,2.59
2023-04-27T12:20:55.983Z,2.69
2023-04-27T12:21:56.348Z,2.29
2023-04-27T12:22:56.088Z,2.53
2023-04-27T12:23:56.132Z,2.36
2023-04-27T12:24:56.217Z,2.34
2023-04-27T12:25:56.280Z,2.17
2023-04-27T12:26:56.345Z,2.16
2023-04-27T12:27:56.322Z,2.37
2023-04-27T12:28:56.336Z,2.19
2023-04-27T12:29:56.335Z,2.55
2023-04-27T12:30:56.388Z,2.18
2023-04-27T12:31:56.330Z,1.94
2023-04-27T12:32:56.366Z,2.00
2023-04-27T12:33:56.343Z,2.59
2023-04-27T12:34:56.358Z,2.43
2023-04-27T12:35:56.363Z,2.10
2023-04-27T12:36:57.084Z,1.92
2023-04-27T12:37:56.388Z,2.39
2023-04-27T12:38:56.400Z,1.47
2023-04-27T12:39:56.836Z,2.43
2023-04-27T12:40:56.449Z,1.94
2023-04-27T12:41:56.510Z,2.07
2023-04-27T12:42:59.141Z,1.88
2023-04-27T12:43:56.503Z,1.89
2023-04-27T12:44:57.096Z,2.02
2023-04-27T12:45:56.758Z,2.09
2023-04-27T12:46:56.847Z,2.41
2023-04-27T12:48:03.552Z,2.15
2023-04-27T12:48:56.575Z,1.99
2023-04-27T12:49:56.550Z,2.27
2023-04-27T12:50:56.553Z,2.13
2023-04-27T12:51:56.554Z,1.79
2023-04-27T12:52:57.205Z,1.79
2023-04-27T12:53:57.422Z,1.74
2023-04-27T12:54:56.556Z,1.56
2023-04-27T12:55:56.561Z,1.90
2023-04-27T12:56:56.561Z,1.99
2023-04-27T12:57:56.873Z,1.32
2023-04-27T12:58:56.562Z,2.13
2023-04-27T12:59:57.715Z,1.99
2023-04-27T13:00:56.555Z,1.95
2023-04-27T13:01:56.697Z,1.79
2023-04-27T13:02:57.026Z,1.47
2023-04-27T13:03:56.766Z,2.00
2023-04-27T13:04:56.651Z,2.17
2023-04-27T13:05:56.557Z,2.02
2023-04-27T13:06:56.916Z,1.70
2023-04-27T13:07:56.551Z,2.49
2023-04-27T13:08:56.578Z,2.13
2023-04-27T13:09:56.577Z,2.15
2023-04-27T13:10:56.583Z,2.13
2023-04-27T13:11:57.157Z,2.22
2023-04-27T13:12:56.761Z,1.94
2023-04-27T13:13:56.829Z,2.10
2023-04-27T13:14:56.846Z,2.13
2023-04-27T13:15:56.877Z,2.13
2023-04-27T13:16:57.363Z,2.34
2023-04-27T13:17:56.970Z,1.70
2023-04-27T13:18:57.349Z,1.92
2023-04-27T13:19:57.004Z,2.13
2023-04-27T13:20:57.049Z,2.13
2023-04-27T13:21:57.395Z,2.41